ホノルル の空港の天気 - METARとTAF

ホノルル国際空港 ( PHNL / HNL ) - アメリカ合衆国 ハワイ州ホノルル
飛行場実況気象(Metar)
観測時間03/28 10:53 HST (03/28 20:53 UTC)
風向・風速東北東 5m/s
視程10km以上
天気現象
少しの雲 雲底高度 760m
全天の4割程度の雲 雲底高度 1370m
全天の8割程度の雲 雲底高度 2290m
気温26.7℃
湿度56%
気圧1020hPa
METARPHNL 282053Z 07009KT 10SM FEW025 SCT045 BKN075 27/17 A3012 RMK AO2 SLP200 T02670172 50000 $
過去の天気等 Google飛行場航空写真 Wunderground天気予報

過去48時間のMETAR

飛行場予報(TAF)
発表時間: 3/28 11:03 HST (3/28 21:03 UTC)
予報対象時間: 28日11時 HST ~ 29日14時 HST
風向・風速東 6m/s
視程10km以上
少しの雲 雲底高度 760m
全天の4割程度の雲 雲底高度 1,370m
全天の8割程度の雲 雲底高度 1,830m
28日18時 HST から
風向・風速東北東 4m/s
視程10km以上
少しの雲 雲底高度 760m
全天の8割程度の雲 雲底高度 1,520m
29日11時 HST から
風向・風速東 6m/s
視程10km以上
少しの雲 雲底高度 760m
全天の4割程度の雲 雲底高度 1,520m
PHNL 282103Z 2821/2924 09011KT P6SM FEW025 SCT045 BKN060
FM290400 06007KT P6SM FEW025 BKN050
FM292100 09011KT P6SM FEW025 SCT050